createdAt,value
2018-07-12T00:00:43.029Z,9.30
2018-07-12T00:05:46.061Z,8.60
2018-07-12T00:10:49.179Z,9.40
2018-07-12T00:15:52.241Z,9.10
2018-07-12T00:20:55.063Z,8.37
2018-07-12T00:25:58.105Z,8.20
2018-07-12T00:31:00.940Z,8.27
2018-07-12T00:36:04.062Z,8.83
2018-07-12T00:41:07.207Z,7.90
2018-07-12T00:46:10.765Z,8.00
2018-07-12T00:51:14.080Z,9.53
2018-07-12T00:56:17.273Z,8.63
2018-07-12T01:01:20.106Z,9.57
2018-07-12T01:06:22.994Z,9.43
2018-07-12T01:11:25.840Z,8.67
2018-07-12T01:16:28.723Z,8.87
2018-07-12T01:21:31.629Z,8.93
2018-07-12T01:26:34.574Z,9.03
2018-07-12T01:31:39.758Z,10.10
2018-07-12T01:36:42.887Z,9.93
2018-07-12T01:41:45.851Z,9.60
2018-07-12T01:46:48.879Z,9.70
2018-07-12T01:51:52.048Z,9.90
2018-07-12T01:56:54.959Z,9.93
2018-07-12T02:01:57.823Z,9.90
2018-07-12T02:07:00.735Z,10.77
2018-07-12T02:12:03.714Z,9.50
2018-07-12T02:17:06.593Z,10.00
2018-07-12T02:22:09.675Z,9.70
2018-07-12T02:27:12.699Z,9.43
2018-07-12T02:32:16.143Z,10.33
2018-07-12T02:37:19.320Z,11.47
2018-07-12T02:42:22.260Z,11.00
2018-07-12T02:47:25.091Z,10.50
2018-07-12T02:52:28.220Z,11.30
2018-07-12T02:57:31.040Z,11.60
2018-07-12T03:02:33.866Z,12.67
2018-07-12T03:07:36.746Z,11.60
2018-07-12T03:12:40.139Z,12.10
2018-07-12T03:17:43.342Z,12.27
2018-07-12T03:22:46.347Z,11.97
2018-07-12T03:27:49.203Z,12.60
2018-07-12T03:32:52.039Z,13.40
2018-07-12T03:37:54.924Z,13.30
2018-07-12T03:42:57.788Z,13.97
2018-07-12T03:48:00.664Z,14.27
2018-07-12T03:53:03.513Z,14.30
2018-07-12T03:58:06.550Z,14.93
2018-07-12T04:03:10.464Z,13.23
2018-07-12T04:08:13.620Z,12.97
2018-07-12T04:13:16.726Z,12.63
2018-07-12T04:18:19.743Z,12.57
2018-07-12T04:23:22.669Z,11.70
2018-07-12T04:28:25.500Z,10.73
2018-07-12T04:33:28.347Z,10.37
2018-07-12T04:38:31.265Z,9.97
2018-07-12T04:43:34.127Z,9.40
2018-07-12T04:48:36.994Z,8.83
2018-07-12T04:53:39.951Z,7.90
2018-07-12T04:58:43.147Z,8.23
2018-07-12T05:03:46.056Z,7.93
2018-07-12T05:08:48.982Z,7.23
2018-07-12T05:13:52.714Z,6.80
2018-07-12T05:18:55.564Z,6.22
2018-07-12T05:23:58.524Z,6.95
2018-07-12T05:29:01.434Z,6.57
2018-07-12T05:34:04.296Z,7.53
2018-07-12T05:39:08.447Z,7.07
2018-07-12T05:44:12.654Z,6.00
2018-07-12T05:49:16.864Z,8.97
2018-07-12T05:54:21.337Z,9.93
2018-07-12T05:59:25.474Z,7.63
2018-07-12T06:04:29.617Z,7.43
2018-07-12T06:09:33.827Z,5.87
2018-07-12T06:14:38.228Z,6.23
2018-07-12T06:19:42.734Z,5.90
2018-07-12T06:24:47.974Z,6.50
2018-07-12T06:29:52.156Z,5.87
2018-07-12T06:34:56.418Z,5.93
2018-07-12T06:40:00.529Z,6.63
2018-07-12T06:45:05.644Z,7.10
2018-07-12T06:50:10.195Z,6.70
2018-07-12T06:55:14.557Z,7.27
2018-07-12T07:00:19.006Z,7.30
2018-07-12T07:05:23.387Z,7.10
2018-07-12T07:10:27.763Z,7.80
2018-07-12T07:15:32.318Z,6.77
2018-07-12T07:20:36.480Z,6.77
2018-07-12T07:25:40.755Z,7.30
2018-07-12T07:30:45.248Z,7.83
2018-07-12T07:35:50.091Z,7.70
2018-07-12T07:40:54.220Z,7.60
2018-07-12T07:45:58.470Z,6.70
2018-07-12T07:51:02.688Z,7.40
2018-07-12T07:56:07.129Z,6.33
2018-07-12T08:01:12.041Z,6.20
2018-07-12T08:06:16.382Z,5.67
2018-07-12T08:11:20.902Z,5.70
2018-07-12T08:16:25.065Z,5.17
2018-07-12T08:21:29.225Z,4.23
2018-07-12T08:26:33.133Z,4.30
2018-07-12T08:31:37.257Z,4.77
2018-07-12T08:36:41.775Z,4.80
2018-07-12T08:41:46.124Z,4.23
2018-07-12T08:46:51.171Z,4.43
2018-07-12T08:51:55.534Z,4.73
2018-07-12T08:56:59.651Z,4.27
2018-07-12T09:02:03.775Z,4.43
2018-07-12T09:07:08.011Z,4.13
2018-07-12T09:12:12.478Z,4.17
2018-07-12T09:17:16.960Z,3.57
2018-07-12T09:22:21.116Z,3.70
2018-07-12T09:27:25.249Z,3.97
2018-07-12T09:32:29.362Z,3.60
2018-07-12T09:37:33.708Z,3.70
2018-07-12T09:42:38.100Z,3.63
2018-07-12T09:47:43.426Z,3.70
2018-07-12T09:52:47.855Z,6.20
2018-07-12T09:58:03.454Z,3.90
2018-07-12T10:03:12.893Z,3.77
2018-07-12T10:08:22.582Z,3.93
2018-07-12T10:13:31.040Z,3.50
2018-07-12T10:18:35.207Z,3.90
2018-07-12T10:23:40.049Z,3.57
2018-07-12T10:28:44.808Z,32.30
2018-07-12T10:33:49.205Z,3.43
2018-07-12T10:38:53.032Z,3.07
2018-07-12T10:43:57.159Z,2.80
2018-07-12T10:49:01.405Z,3.27
2018-07-12T10:54:05.518Z,3.00
2018-07-12T10:59:09.648Z,3.70
2018-07-12T11:04:13.789Z,8.90
2018-07-12T11:09:18.062Z,3.40
2018-07-12T11:14:22.171Z,2.93
2018-07-12T11:25:01.311Z,2.40
2018-07-12T11:30:05.455Z,2.53
2018-07-12T11:35:09.560Z,2.50
2018-07-12T11:40:13.702Z,5.80
2018-07-12T11:45:17.821Z,2.57
2018-07-12T11:50:22.785Z,2.60
2018-07-12T11:55:26.876Z,2.50
2018-07-12T12:00:30.964Z,2.73
2018-07-12T12:05:35.092Z,14.17
2018-07-12T12:10:39.207Z,3.03
2018-07-12T12:15:43.305Z,2.53
2018-07-12T12:20:47.533Z,2.40
2018-07-12T12:25:51.596Z,18.60
2018-07-12T12:30:55.628Z,3.13
2018-07-12T12:35:59.687Z,2.60
2018-07-12T12:41:03.867Z,3.00
2018-07-12T12:46:07.937Z,3.10
2018-07-12T12:51:12.117Z,3.20
2018-07-12T12:56:16.661Z,3.33
2018-07-12T13:01:20.810Z,2.87
2018-07-12T13:06:24.903Z,3.30
2018-07-12T13:11:29.187Z,2.90
2018-07-12T13:16:33.268Z,3.00
2018-07-12T13:21:37.360Z,3.10
2018-07-12T13:26:41.511Z,3.20
2018-07-12T13:31:45.619Z,3.27
2018-07-12T13:36:49.822Z,3.50
2018-07-12T13:41:54.217Z,3.33
2018-07-12T13:46:58.209Z,3.40
2018-07-12T13:52:02.287Z,3.23
2018-07-12T13:57:06.382Z,2.87
2018-07-12T14:02:10.428Z,3.27
2018-07-12T14:07:14.602Z,3.13
2018-07-12T14:12:18.678Z,3.40
2018-07-12T14:17:22.851Z,3.40
2018-07-12T14:22:26.924Z,3.27
2018-07-12T14:27:31.159Z,3.20
2018-07-12T14:32:35.264Z,3.30
2018-07-12T14:37:39.997Z,3.10
2018-07-12T14:42:44.189Z,3.10
2018-07-12T14:52:58.756Z,3.50
2018-07-12T14:58:02.872Z,3.40
2018-07-12T15:03:06.939Z,2.77
2018-07-12T15:08:11.013Z,2.93
2018-07-12T15:13:15.100Z,3.30
2018-07-12T15:18:19.219Z,3.17
2018-07-12T15:23:23.465Z,3.07
2018-07-12T15:28:28.391Z,3.60
2018-07-12T15:33:32.547Z,2.83
2018-07-12T15:38:36.707Z,3.43
2018-07-12T15:43:40.784Z,3.33
2018-07-12T15:48:44.953Z,3.13
2018-07-12T15:53:48.987Z,2.87
2018-07-12T15:58:53.144Z,3.53
2018-07-12T16:03:57.184Z,3.47
2018-07-12T16:14:47.698Z,2.73
2018-07-12T16:19:51.875Z,3.30
2018-07-12T16:24:55.974Z,2.80
2018-07-12T16:30:00.163Z,3.03
2018-07-12T16:35:04.198Z,2.97
2018-07-12T16:40:08.424Z,3.50
2018-07-12T16:45:12.547Z,4.93
2018-07-12T16:50:16.767Z,3.20
2018-07-12T16:55:20.866Z,3.10
2018-07-12T17:00:25.224Z,2.80
2018-07-12T17:05:29.324Z,3.20
2018-07-12T17:10:34.201Z,3.23
2018-07-12T17:15:38.352Z,3.90
2018-07-12T17:20:43.357Z,3.17
2018-07-12T17:25:47.806Z,3.10
2018-07-12T17:35:17.313Z,3.50
2018-07-12T17:40:21.439Z,3.37
2018-07-12T17:45:25.405Z,3.17
2018-07-12T17:50:29.355Z,3.00
2018-07-12T17:55:39.564Z,3.03
2018-07-12T18:00:43.900Z,3.00
2018-07-12T18:05:48.102Z,3.03
2018-07-12T18:10:52.250Z,3.40
2018-07-12T18:15:56.385Z,3.67
2018-07-12T18:21:00.512Z,3.93
2018-07-12T18:26:04.996Z,3.63
2018-07-12T18:31:09.392Z,4.40
2018-07-12T18:36:13.577Z,4.80
2018-07-12T18:41:17.785Z,4.17
2018-07-12T18:46:22.259Z,3.93
2018-07-12T18:51:27.242Z,4.47
2018-07-12T18:59:28.963Z,4.33
2018-07-12T19:04:33.464Z,4.20
2018-07-12T19:09:38.692Z,3.90
2018-07-12T19:20:18.400Z,3.40
2018-07-12T19:25:22.799Z,3.50
2018-07-12T19:30:27.021Z,4.03
2018-07-12T19:35:31.086Z,3.90
2018-07-12T19:40:35.212Z,4.40
2018-07-12T19:45:39.271Z,4.00
2018-07-12T19:50:43.443Z,3.63
2018-07-12T19:55:54.080Z,3.73
2018-07-12T20:00:58.344Z,4.00
2018-07-12T20:06:02.572Z,4.63
2018-07-12T20:11:06.815Z,4.60
2018-07-12T20:16:10.934Z,4.70
2018-07-12T20:21:15.124Z,4.23
2018-07-12T20:26:19.901Z,4.60
2018-07-12T20:31:23.794Z,3.83
2018-07-12T20:36:28.012Z,4.13
2018-07-12T20:41:32.120Z,4.07
2018-07-12T20:46:36.204Z,5.60
2018-07-12T20:51:40.280Z,4.50
2018-07-12T20:56:44.385Z,4.00
2018-07-12T21:01:48.590Z,7.73
2018-07-12T21:07:11.027Z,6.17
2018-07-12T21:12:15.824Z,3.70
2018-07-12T21:17:20.056Z,3.60
2018-07-12T21:22:24.130Z,4.47
2018-07-12T21:27:28.206Z,4.30
2018-07-12T21:32:32.319Z,3.97
2018-07-12T21:37:36.358Z,3.77
2018-07-12T21:42:41.153Z,4.53
2018-07-12T21:47:45.276Z,3.97
2018-07-12T21:52:49.422Z,4.40
2018-07-12T21:57:53.472Z,3.57
2018-07-12T22:02:57.874Z,3.93
2018-07-12T22:08:13.404Z,4.10
2018-07-12T22:13:17.866Z,4.00
2018-07-12T22:18:21.805Z,4.33
2018-07-12T22:23:26.017Z,4.63
2018-07-12T22:28:30.208Z,4.10
2018-07-12T22:33:34.443Z,4.20
2018-07-12T22:38:38.581Z,4.53
2018-07-12T22:43:42.752Z,3.87
2018-07-12T22:48:46.803Z,4.27
2018-07-12T22:53:50.846Z,4.20
2018-07-12T22:58:55.057Z,4.80
2018-07-12T23:03:59.185Z,3.70
2018-07-12T23:09:04.027Z,4.17
2018-07-12T23:14:08.089Z,4.20
2018-07-12T23:19:12.220Z,4.43
2018-07-12T23:24:16.524Z,3.83
2018-07-12T23:29:20.806Z,4.63
2018-07-12T23:34:25.000Z,4.63
2018-07-12T23:39:29.036Z,4.23
2018-07-12T23:44:33.392Z,4.47
2018-07-12T23:49:38.640Z,4.30
2018-07-12T23:54:42.685Z,3.83
2018-07-12T23:59:47.112Z,4.33
